Time;durP1;ratioP1;P1;durP2;ratioP2;P2;SDS_P1;SDS_P2;PMS_P1;PMS_P2;Temp;Humidity;BMP_temperature;BMP_pressure;BME280_temperature;BME280_humidity;BME280_pressure;Samples;Min_cycle;Max_cycle;Signal;HPM_P1;HPM_P2
2022/04/23 00:01:42;;;;;;;19.70;14.10;;;11.50;99.90;;;;;;4997269;28;20210;-71
2022/04/23 00:04:09;;;;;;;22.13;15.17;;;11.50;99.90;;;;;;5031615;28;20449;-70
2022/04/23 00:06:35;;;;;;;18.87;15.57;;;11.50;99.90;;;;;;5031240;28;20847;-71
2022/04/23 00:09:02;;;;;;;21.20;16.00;;;11.40;99.90;;;;;;5031285;28;20430;-71
2022/04/23 00:11:28;;;;;;;22.07;15.40;;;11.40;99.90;;;;;;5031216;28;20433;-70
2022/04/23 00:13:55;;;;;;;20.60;16.83;;;11.30;99.90;;;;;;5030999;28;20458;-71
2022/04/23 00:16:24;;;;;;;22.13;18.23;;;11.30;99.90;;;;;;5031236;28;20465;-71
2022/04/23 00:18:51;;;;;;;19.67;14.97;;;11.30;99.90;;;;;;5031185;28;20421;-71
2022/04/23 00:21:18;;;;;;;19.57;16.63;;;11.30;99.90;;;;;;5031194;28;20421;-72
2022/04/23 00:23:45;;;;;;;21.40;17.50;;;11.20;99.90;;;;;;5031086;28;20787;-71
2022/04/23 00:26:10;;;;;;;21.90;16.97;;;11.10;99.90;;;;;;5030939;28;20513;-70
2022/04/23 00:28:36;;;;;;;21.43;17.47;;;11.10;99.90;;;;;;5030850;28;20442;-71
2022/04/23 00:31:04;;;;;;;23.03;17.40;;;10.90;99.90;;;;;;5012977;28;20309;-71
2022/04/23 00:33:29;;;;;;;26.20;18.67;;;10.90;99.90;;;;;;5030853;28;20205;-71
2022/04/23 00:35:55;;;;;;;23.30;17.73;;;10.80;99.90;;;;;;5030873;28;20419;-70
2022/04/23 00:38:21;;;;;;;24.13;18.67;;;10.90;99.90;;;;;;5030707;28;20398;-70
2022/04/23 00:40:46;;;;;;;27.03;19.27;;;10.90;99.90;;;;;;5030678;28;20182;-70
2022/04/23 00:43:29;;;;;;;27.80;18.80;;;10.80;99.90;;;;;;5030734;28;20184;-70
2022/04/23 00:45:55;;;;;;;24.87;18.97;;;10.80;99.90;;;;;;5030714;28;20185;-69
2022/04/23 00:48:22;;;;;;;27.60;19.17;;;10.70;99.90;;;;;;5030566;28;20472;-71
2022/04/23 00:50:52;;;;;;;26.57;19.50;;;10.70;99.90;;;;;;5030621;28;20988;-71
2022/04/23 00:53:19;;;;;;;26.40;20.43;;;10.70;99.90;;;;;;5030433;28;20648;-71
2022/04/23 00:55:46;;;;;;;23.60;19.03;;;10.60;99.90;;;;;;5030398;28;20924;-71
2022/04/23 00:58:16;;;;;;;24.33;20.00;;;10.60;99.90;;;;;;5030274;28;20456;-71
2022/04/23 01:00:45;;;;;;;25.10;19.90;;;10.70;99.90;;;;;;5030298;28;20421;-71
2022/04/23 01:03:12;;;;;;;27.40;21.93;;;10.70;99.90;;;;;;5030336;28;20424;-71
2022/04/23 01:05:45;;;;;;;29.60;22.07;;;10.60;99.90;;;;;;5030403;28;20456;-71
2022/04/23 01:08:15;;;;;;;28.00;21.63;;;10.40;99.90;;;;;;5030247;28;20441;-70
2022/04/23 01:10:42;;;;;;;31.10;22.93;;;10.40;99.90;;;;;;5030074;28;20428;-71
2022/04/23 01:13:08;;;;;;;27.10;21.10;;;10.30;99.90;;;;;;5012086;28;20428;-71
2022/04/23 01:15:34;;;;;;;28.17;22.70;;;10.40;99.90;;;;;;5030076;28;20412;-71
2022/04/23 01:17:59;;;;;;;29.83;21.43;;;10.40;99.90;;;;;;5030139;28;20267;-70
2022/04/23 01:20:25;;;;;;;35.40;23.00;;;10.40;99.90;;;;;;5030069;28;20189;-70
2022/04/23 01:22:51;;;;;;;27.47;22.17;;;10.40;99.90;;;;;;5029911;28;20182;-70
2022/04/23 01:25:17;;;;;;;29.93;23.20;;;10.30;99.90;;;;;;5029027;28;20457;-71
2022/04/23 01:27:45;;;;;;;30.87;23.03;;;10.40;99.90;;;;;;5029730;28;20685;-71
2022/04/23 01:30:11;;;;;;;30.00;22.73;;;10.40;99.90;;;;;;5029713;28;20183;-70
2022/04/23 01:32:38;;;;;;;31.43;24.30;;;10.30;99.90;;;;;;5029568;28;20421;-70
2022/04/23 01:35:04;;;;;;;31.77;24.17;;;10.20;99.90;;;;;;5029606;28;20549;-70
2022/04/23 01:37:30;;;;;;;31.47;24.57;;;10.20;99.90;;;;;;5029617;28;20481;-70
2022/04/23 01:39:56;;;;;;;30.70;24.60;;;10.20;99.90;;;;;;5029550;28;20432;-71
2022/04/23 01:42:22;;;;;;;28.83;22.40;;;10.20;99.90;;;;;;5029564;28;20783;-70
2022/04/23 01:44:48;;;;;;;28.63;23.30;;;10.00;99.90;;;;;;5011604;28;20180;-71
2022/04/23 01:47:14;;;;;;;30.00;23.60;;;10.10;99.90;;;;;;5011503;28;20200;-71
2022/04/23 01:49:41;;;;;;;31.50;25.47;;;10.00;99.90;;;;;;5029772;28;20447;-71
2022/04/23 01:52:07;;;;;;;31.93;23.77;;;10.10;99.90;;;;;;5030719;28;20430;-70
2022/04/23 01:54:33;;;;;;;32.40;24.50;;;10.10;99.90;;;;;;5029276;28;21102;-71
2022/04/23 01:57:00;;;;;;;30.37;23.73;;;10.10;99.90;;;;;;5029289;28;20948;-71
2022/04/23 01:59:26;;;;;;;30.47;23.87;;;10.00;99.90;;;;;;5029275;28;20415;-70
2022/04/23 02:01:51;;;;;;;27.37;21.80;;;10.00;99.90;;;;;;5029306;28;20419;-70
2022/04/23 02:04:17;;;;;;;30.00;24.13;;;10.10;99.90;;;;;;5029191;28;20429;-70
2022/04/23 02:06:43;;;;;;;26.10;21.83;;;10.00;99.90;;;;;;5029075;28;20223;-70
2022/04/23 02:09:09;;;;;;;27.97;23.20;;;10.00;99.90;;;;;;5029071;28;20715;-71
2022/04/23 02:11:35;;;;;;;27.77;22.47;;;10.00;99.90;;;;;;5011244;28;20449;-71
2022/04/23 02:14:02;;;;;;;28.40;22.47;;;10.00;99.90;;;;;;5028906;28;20214;-70
2022/04/23 02:16:28;;;;;;;35.27;22.03;;;10.00;99.90;;;;;;5011346;28;20313;-70
2022/04/23 02:18:57;;;;;;;31.10;21.70;;;10.00;99.90;;;;;;5028967;28;20596;-71
2022/04/23 02:21:24;;;;;;;27.87;22.33;;;10.00;99.90;;;;;;5028792;28;20419;-70
2022/04/23 02:23:50;;;;;;;29.70;23.57;;;9.90;99.90;;;;;;5029026;28;20771;-71
2022/04/23 02:26:15;;;;;;;29.23;22.67;;;9.90;99.90;;;;;;5028895;28;20546;-70
2022/04/23 02:28:41;;;;;;;30.60;23.97;;;9.80;99.90;;;;;;5028726;28;20452;-71
2022/04/23 02:31:07;;;;;;;28.93;23.97;;;9.70;99.90;;;;;;5028882;28;20203;-71
2022/04/23 02:33:33;;;;;;;28.03;22.97;;;9.70;99.90;;;;;;5010908;28;20673;-70
2022/04/23 02:35:59;;;;;;;33.83;24.70;;;9.60;99.90;;;;;;5028731;28;20430;-71
2022/04/23 02:38:24;;;;;;;30.00;23.30;;;9.50;99.90;;;;;;5028766;28;20435;-70
2022/04/23 02:40:50;;;;;;;28.80;23.10;;;9.60;99.90;;;;;;5028599;28;20176;-69
2022/04/23 02:43:16;;;;;;;31.70;24.67;;;9.60;99.90;;;;;;5028819;28;20188;-70
2022/04/23 02:45:42;;;;;;;32.47;24.87;;;9.60;99.90;;;;;;5010923;28;20537;-70
2022/04/23 02:48:11;;;;;;;39.67;25.40;;;9.50;99.90;;;;;;5010482;28;20718;-70
2022/04/23 02:50:38;;;;;;;29.63;24.00;;;9.40;99.90;;;;;;5010432;28;20210;-70
2022/04/23 02:53:05;;;;;;;32.00;25.17;;;9.30;99.90;;;;;;5028517;28;20993;-69
2022/04/23 02:55:32;;;;;;;38.13;22.93;;;9.50;99.90;;;;;;5028674;28;20808;-71
2022/04/23 02:58:07;;;;;;;28.63;21.93;;;9.50;99.90;;;;;;5028211;28;20814;-70
2022/04/23 03:00:34;;;;;;;30.27;23.93;;;9.50;99.90;;;;;;5010549;28;20422;-71
2022/04/23 03:03:00;;;;;;;30.07;23.97;;;9.60;99.90;;;;;;5028497;28;20517;-71
2022/04/23 03:05:26;;;;;;;32.83;24.80;;;9.40;99.90;;;;;;5028575;28;20403;-70
2022/04/23 03:07:53;;;;;;;32.80;24.43;;;9.30;99.90;;;;;;5028208;28;20455;-70
2022/04/23 03:10:19;;;;;;;28.47;23.17;;;9.30;99.90;;;;;;5010830;28;20415;-70
2022/04/23 03:12:46;;;;;;;30.23;24.37;;;9.40;99.90;;;;;;5010591;28;20422;-70
2022/04/23 03:15:18;;;;;;;26.80;22.10;;;9.30;99.90;;;;;;5028271;28;20463;-70
2022/04/23 03:17:45;;;;;;;28.40;22.80;;;9.40;99.90;;;;;;5010791;28;20441;-70
2022/04/23 03:20:12;;;;;;;34.03;25.90;;;9.50;99.90;;;;;;5010343;28;20415;-71
2022/04/23 03:22:42;;;;;;;33.27;25.30;;;9.40;99.90;;;;;;5028617;28;20959;-74
2022/04/23 03:25:09;;;;;;;30.17;23.27;;;9.40;99.90;;;;;;5028954;28;20451;-74
2022/04/23 03:27:36;;;;;;;28.67;22.90;;;9.40;99.90;;;;;;5031167;28;20477;-73
2022/04/23 03:30:03;;;;;;;29.27;22.13;;;9.40;99.90;;;;;;5030759;28;20423;-72
2022/04/23 03:32:29;;;;;;;31.20;22.67;;;9.40;99.90;;;;;;5030668;28;20445;-73
2022/04/23 03:34:54;;;;;;;35.60;23.50;;;9.40;99.90;;;;;;5011920;28;21009;-73
2022/04/23 03:37:21;;;;;;;30.17;23.10;;;9.40;99.90;;;;;;5011010;28;20461;-72
2022/04/23 03:39:48;;;;;;;28.37;21.43;;;9.30;99.90;;;;;;5028991;28;20788;-73
2022/04/23 03:42:13;;;;;;;28.90;23.30;;;9.30;99.90;;;;;;5028865;28;20481;-72
2022/04/23 03:44:39;;;;;;;27.60;22.10;;;9.20;99.90;;;;;;5028472;28;20522;-73
2022/04/23 03:47:05;;;;;;;29.53;20.50;;;9.30;99.90;;;;;;5028961;28;20254;-72
2022/04/23 03:49:30;;;;;;;23.30;19.70;;;9.30;99.90;;;;;;5031780;28;20195;-72
2022/04/23 03:51:57;;;;;;;25.73;20.20;;;9.30;99.90;;;;;;5031832;28;20574;-72
2022/04/23 03:54:23;;;;;;;24.47;20.03;;;9.30;99.90;;;;;;5031673;28;20212;-72
2022/04/23 03:56:49;;;;;;;27.93;19.73;;;9.40;99.90;;;;;;5031555;28;20431;-71
2022/04/23 03:59:20;;;;;;;26.47;20.97;;;9.30;99.90;;;;;;5031368;28;20430;-71
2022/04/23 04:01:47;;;;;;;26.10;19.93;;;9.40;99.90;;;;;;5031735;28;20202;-72
2022/04/23 04:04:14;;;;;;;26.67;20.70;;;9.40;99.90;;;;;;5031580;28;20422;-73
2022/04/23 04:06:40;;;;;;;23.70;19.13;;;9.40;99.90;;;;;;5031630;28;20434;-74
2022/04/23 04:09:06;;;;;;;25.33;20.90;;;9.30;99.90;;;;;;5031385;28;20434;-73
2022/04/23 04:12:01;;;;;;;27.13;21.47;;;9.30;99.90;;;;;;5013412;28;20443;-72
2022/04/23 04:14:17;;;;;;;24.13;18.77;;;9.20;99.90;;;;;;5031311;28;20232;-71
2022/04/23 04:16:43;;;;;;;24.37;19.53;;;9.20;99.90;;;;;;5031137;28;20771;-71
2022/04/23 04:19:09;;;;;;;24.87;19.27;;;9.20;99.90;;;;;;5031222;28;20427;-73
2022/04/23 04:21:35;;;;;;;23.87;18.87;;;9.20;99.90;;;;;;5013170;28;20435;-71
2022/04/23 04:24:00;;;;;;;21.67;18.20;;;9.20;99.90;;;;;;5013185;28;20202;-70
2022/04/23 04:26:26;;;;;;;25.30;18.70;;;9.30;99.90;;;;;;5030882;28;20200;-70
2022/04/23 04:28:52;;;;;;;23.07;18.10;;;9.30;99.90;;;;;;5013038;28;20345;-71
2022/04/23 04:34:01;;;;;;;20.90;16.83;;;9.40;99.90;;;;;;5015710;28;20223;-70
2022/04/23 04:36:27;;;;;;;21.47;17.27;;;9.50;99.90;;;;;;5030935;28;20454;-70
2022/04/23 04:38:53;;;;;;;22.33;16.70;;;9.50;99.90;;;;;;5030784;28;20195;-69
2022/04/23 04:41:19;;;;;;;18.43;15.80;;;9.50;99.90;;;;;;5012976;28;20191;-70
2022/04/23 04:43:44;;;;;;;20.60;16.70;;;9.40;99.90;;;;;;5013118;28;20184;-70
2022/04/23 04:46:10;;;;;;;20.00;16.50;;;9.40;99.90;;;;;;5031148;28;20432;-72
2022/04/23 04:48:36;;;;;;;18.80;15.93;;;9.40;99.90;;;;;;5012769;28;20215;-72
2022/04/23 04:51:01;;;;;;;18.97;15.20;;;9.30;99.90;;;;;;5012775;28;20218;-71
2022/04/23 04:53:27;;;;;;;20.70;16.60;;;9.50;99.90;;;;;;5030594;28;20216;-72
2022/04/23 04:55:52;;;;;;;22.37;16.57;;;9.60;99.90;;;;;;5030743;28;20188;-71
2022/04/23 04:58:18;;;;;;;20.17;16.20;;;9.60;99.90;;;;;;5011723;28;20216;-70
2022/04/23 05:00:44;;;;;;;19.00;15.60;;;9.60;99.90;;;;;;5012188;28;20330;-72
2022/04/23 05:03:10;;;;;;;19.33;15.60;;;9.70;99.90;;;;;;5030492;28;20227;-72
2022/04/23 05:05:36;;;;;;;17.67;13.93;;;9.60;99.90;;;;;;5030713;28;20188;-73
2022/04/23 05:08:01;;;;;;;19.90;15.87;;;9.50;99.90;;;;;;5030924;28;20450;-72
2022/04/23 05:10:27;;;;;;;19.20;14.20;;;9.40;99.90;;;;;;5012440;28;20548;-73
2022/04/23 05:12:53;;;;;;;20.77;16.07;;;9.50;99.90;;;;;;5030298;28;20185;-72
2022/04/23 05:15:18;;;;;;;20.03;15.60;;;9.50;99.90;;;;;;5030070;28;20571;-73
2022/04/23 05:17:44;;;;;;;19.50;15.43;;;9.40;99.90;;;;;;5030247;28;20221;-72
2022/04/23 05:20:10;;;;;;;19.70;16.17;;;9.40;99.90;;;;;;5030197;28;20199;-72
2022/04/23 05:22:36;;;;;;;18.73;15.03;;;9.40;99.90;;;;;;5012126;28;20669;-73
2022/04/23 05:25:02;;;;;;;20.63;16.07;;;9.50;99.90;;;;;;5029859;28;20441;-72
2022/04/23 05:27:27;;;;;;;20.20;14.30;;;9.40;99.90;;;;;;5030088;28;20208;-76
2022/04/23 05:29:53;;;;;;;17.60;14.37;;;9.30;99.90;;;;;;5029990;28;20196;-75
2022/04/23 05:32:19;;;;;;;20.00;15.00;;;9.30;99.90;;;;;;5030151;28;20200;-75
2022/04/23 05:34:45;;;;;;;16.73;14.47;;;9.40;99.90;;;;;;5030101;28;20845;-75
2022/04/23 05:37:11;;;;;;;20.63;14.30;;;9.50;99.90;;;;;;5029736;28;20320;-75
2022/04/23 05:39:36;;;;;;;18.73;14.37;;;9.60;99.90;;;;;;5012030;28;20528;-74
2022/04/23 05:42:02;;;;;;;14.60;13.00;;;9.70;99.90;;;;;;5011856;28;20848;-76
2022/04/23 05:44:28;;;;;;;17.93;14.77;;;9.60;99.90;;;;;;5029658;28;20195;-73
2022/04/23 05:46:53;;;;;;;19.20;14.90;;;9.70;99.90;;;;;;5011869;28;21209;-74
2022/04/23 05:49:19;;;;;;;17.40;14.23;;;9.70;99.90;;;;;;5011623;28;20201;-74
2022/04/23 05:51:44;;;;;;;16.27;14.00;;;9.60;99.90;;;;;;5029714;28;20658;-74
2022/04/23 05:54:10;;;;;;;16.87;14.27;;;9.50;99.90;;;;;;5029500;28;20220;-74
2022/04/23 05:56:36;;;;;;;19.10;13.20;;;9.50;99.90;;;;;;5029554;28;20192;-73
2022/04/23 05:59:01;;;;;;;16.53;13.37;;;9.60;99.90;;;;;;5029431;28;20215;-73
2022/04/23 06:01:27;;;;;;;15.00;12.67;;;9.70;99.90;;;;;;5029602;28;20301;-73
2022/04/23 06:03:52;;;;;;;15.70;13.10;;;9.60;99.90;;;;;;5029353;28;20195;-73
2022/04/23 06:06:19;;;;;;;15.40;13.23;;;9.50;99.90;;;;;;5011809;28;20219;-74
2022/04/23 06:08:45;;;;;;;16.73;14.10;;;9.70;99.90;;;;;;5012198;28;20526;-73
2022/04/23 06:11:11;;;;;;;15.40;12.30;;;9.90;99.90;;;;;;5011653;28;20430;-72
2022/04/23 06:13:36;;;;;;;15.83;13.07;;;9.90;99.90;;;;;;5029180;28;20305;-73
2022/04/23 06:16:02;;;;;;;13.73;11.80;;;9.90;99.90;;;;;;5029336;28;20187;-73
2022/04/23 06:18:28;;;;;;;14.63;12.83;;;9.90;99.90;;;;;;5029335;28;20211;-72
2022/04/23 06:20:53;;;;;;;16.00;11.13;;;10.00;99.90;;;;;;5011603;28;20267;-72
2022/04/23 06:23:19;;;;;;;11.23;10.07;;;10.10;99.90;;;;;;5011791;28;20207;-72
2022/04/23 06:25:44;;;;;;;15.60;11.90;;;10.20;99.90;;;;;;5029565;28;20204;-72
2022/04/23 06:28:10;;;;;;;13.07;11.40;;;10.30;99.90;;;;;;5029554;28;20204;-73
2022/04/23 06:30:37;;;;;;;12.40;10.47;;;10.40;99.90;;;;;;5029621;28;20181;-73
2022/04/23 06:33:03;;;;;;;10.30;9.23;;;10.50;99.90;;;;;;5029615;28;20188;-73
2022/04/23 06:35:30;;;;;;;10.90;9.57;;;10.50;99.90;;;;;;5029469;28;20560;-73
2022/04/23 06:37:55;;;;;;;10.63;8.67;;;10.30;99.90;;;;;;5011488;28;20505;-73
2022/04/23 06:40:21;;;;;;;9.30;8.30;;;10.20;99.90;;;;;;5012027;28;20829;-73
2022/04/23 06:42:47;;;;;;;10.90;7.70;;;10.10;99.90;;;;;;5029471;28;20631;-72
2022/04/23 06:45:12;;;;;;;9.57;7.90;;;10.00;99.90;;;;;;5029095;28;20474;-73
2022/04/23 06:47:38;;;;;;;9.33;8.33;;;10.20;99.90;;;;;;5010961;28;20208;-73
2022/04/23 06:50:06;;;;;;;9.93;9.00;;;10.40;99.90;;;;;;5028715;28;20184;-73
2022/04/23 06:52:31;;;;;;;10.30;8.53;;;10.30;99.90;;;;;;5028771;28;20265;-73
2022/04/23 06:54:58;;;;;;;9.10;8.20;;;10.50;99.90;;;;;;5028722;28;20562;-73
2022/04/23 06:57:24;;;;;;;12.53;8.30;;;10.70;99.90;;;;;;5028591;28;20207;-73
2022/04/23 06:59:51;;;;;;;8.53;7.73;;;10.90;99.90;;;;;;5010606;28;20428;-72
2022/04/23 07:02:18;;;;;;;9.13;8.20;;;11.00;99.90;;;;;;5028700;28;20447;-73
2022/04/23 07:04:44;;;;;;;9.40;8.50;;;11.10;99.90;;;;;;5028596;28;20502;-72
2022/04/23 07:07:10;;;;;;;10.47;8.87;;;11.20;99.90;;;;;;5028433;28;20541;-73
2022/04/23 07:09:36;;;;;;;10.43;9.33;;;11.20;99.90;;;;;;5028514;28;20272;-73
2022/04/23 07:12:06;;;;;;;10.90;9.63;;;11.10;99.90;;;;;;5028588;28;20429;-73
2022/04/23 07:14:32;;;;;;;9.60;8.60;;;11.10;99.90;;;;;;5010625;28;20479;-73
2022/04/23 07:16:59;;;;;;;10.20;9.20;;;11.20;99.90;;;;;;5028328;28;20509;-73
2022/04/23 07:19:25;;;;;;;10.87;9.13;;;11.40;99.90;;;;;;5028538;28;20424;-73
2022/04/23 07:21:50;;;;;;;11.40;9.50;;;11.40;99.90;;;;;;5028854;28;20424;-73
2022/04/23 07:24:16;;;;;;;9.27;8.37;;;11.40;99.90;;;;;;5032158;28;20428;-73
2022/04/23 07:26:42;;;;;;;11.00;9.73;;;11.40;99.90;;;;;;5014350;28;20701;-73
2022/04/23 07:29:10;;;;;;;11.60;9.60;;;11.60;99.90;;;;;;5014254;28;20304;-73
2022/04/23 07:31:37;;;;;;;10.37;9.27;;;11.40;99.90;;;;;;5032140;28;20424;-73
2022/04/23 07:39:34;;;;;;;12.53;9.10;;;11.20;99.90;;;;;;5032415;28;20867;-73
2022/04/23 07:41:59;;;;;;;10.30;9.30;;;11.30;99.90;;;;;;5013984;28;20515;-73
2022/04/23 07:44:25;;;;;;;11.60;10.07;;;11.20;99.90;;;;;;5031706;28;20505;-73
2022/04/23 07:46:51;;;;;;;11.73;9.03;;;11.20;99.90;;;;;;5031571;28;20210;-73
2022/04/23 07:49:18;;;;;;;10.23;9.20;;;11.20;99.90;;;;;;5031852;28;20512;-72
2022/04/23 07:51:47;;;;;;;10.80;9.20;;;11.30;99.90;;;;;;5031884;28;20906;-73
2022/04/23 07:54:14;;;;;;;10.00;9.00;;;11.40;99.90;;;;;;5013801;28;20565;-73
2022/04/23 07:56:40;;;;;;;10.90;9.10;;;11.30;99.90;;;;;;5014007;28;20429;-72
2022/04/23 07:59:05;;;;;;;11.37;9.87;;;11.60;99.90;;;;;;5031748;28;20422;-73
2022/04/23 08:01:31;;;;;;;9.80;8.80;;;11.80;99.90;;;;;;5031842;28;20186;-73
2022/04/23 08:03:56;;;;;;;11.40;9.40;;;11.80;99.90;;;;;;5013900;28;20217;-73
2022/04/23 08:06:22;;;;;;;10.73;9.67;;;11.80;99.90;;;;;;5013562;28;20198;-73
2022/04/23 08:08:48;;;;;;;9.53;8.53;;;12.00;99.90;;;;;;5013251;28;20217;-74
2022/04/23 08:11:14;;;;;;;14.70;9.90;;;11.80;99.90;;;;;;5031393;28;20186;-73
2022/04/23 08:13:40;;;;;;;12.43;9.20;;;11.90;99.90;;;;;;5031075;28;20914;-73
2022/04/23 08:16:05;;;;;;;13.40;10.10;;;12.00;99.90;;;;;;5013557;28;20533;-73
2022/04/23 08:18:31;;;;;;;14.93;11.00;;;11.90;99.90;;;;;;5033858;28;20216;-74
2022/04/23 08:20:57;;;;;;;16.13;10.80;;;11.70;99.90;;;;;;5036167;28;20661;-74
2022/04/23 08:23:23;;;;;;;11.37;10.17;;;11.70;99.90;;;;;;5015932;28;20171;-74
2022/04/23 08:25:49;;;;;;;13.80;11.33;;;11.70;99.90;;;;;;5054236;28;20210;-74
2022/04/23 08:31:00;;;;;;;13.37;11.33;;;11.80;99.90;;;;;;5033181;28;20432;-74
2022/04/23 08:33:57;;;;;;;12.60;10.40;;;11.90;99.90;;;;;;5039824;28;20775;-74
2022/04/23 08:36:14;;;;;;;16.73;11.67;;;12.00;99.90;;;;;;5031114;28;20429;-73
2022/04/23 08:38:39;;;;;;;13.17;10.47;;;12.30;99.90;;;;;;5030356;28;20448;-74
2022/04/23 08:41:06;;;;;;;13.10;11.70;;;12.30;99.90;;;;;;5030231;28;20182;-73
2022/04/23 08:43:32;;;;;;;13.33;10.17;;;12.30;99.90;;;;;;5030397;28;20178;-74
2022/04/23 08:46:02;;;;;;;12.53;11.13;;;12.10;99.90;;;;;;5030486;28;20435;-74
2022/04/23 08:48:38;;;;;;;12.63;10.67;;;12.30;99.90;;;;;;5030098;28;20213;-74
2022/04/23 08:51:11;;;;;;;15.00;10.83;;;12.30;99.90;;;;;;5030249;28;20491;-74
2022/04/23 08:53:40;;;;;;;12.57;10.17;;;12.40;99.90;;;;;;5030178;28;20842;-73
2022/04/23 08:56:08;;;;;;;13.40;10.87;;;12.50;99.90;;;;;;5030157;28;20423;-74
2022/04/23 08:58:33;;;;;;;15.30;11.33;;;12.60;99.90;;;;;;5011544;28;20479;-74
2022/04/23 09:00:59;;;;;;;13.57;11.40;;;12.80;99.90;;;;;;5029659;28;20534;-73
2022/04/23 09:03:25;;;;;;;12.00;10.80;;;12.70;99.90;;;;;;5029124;28;20254;-73
2022/04/23 09:05:52;;;;;;;19.07;10.63;;;12.80;99.90;;;;;;5011315;28;20182;-73
2022/04/23 09:08:17;;;;;;;13.00;10.33;;;12.80;99.90;;;;;;5029371;28;20258;-73
2022/04/23 09:10:54;;;;;;;14.23;11.03;;;12.90;99.90;;;;;;5029399;28;20914;-73
2022/04/23 09:13:28;;;;;;;12.13;10.47;;;13.00;99.90;;;;;;5011150;28;20720;-73
2022/04/23 09:24:16;;;;;;;39.87;15.80;;;13.80;99.90;;;;;;5029062;28;20418;-73
2022/04/23 09:26:42;;;;;;;18.60;12.70;;;13.90;99.90;;;;;;5011449;28;20421;-74
2022/04/23 09:29:13;;;;;;;13.80;11.10;;;13.90;99.90;;;;;;5028775;28;20617;-74
2022/04/23 09:31:39;;;;;;;24.63;13.57;;;13.70;99.90;;;;;;5011243;28;20958;-73
2022/04/23 09:34:20;;;;;;;19.43;12.57;;;13.80;99.90;;;;;;5011245;28;20474;-73
2022/04/23 09:36:52;;;;;;;14.03;11.60;;;14.10;99.90;;;;;;5029053;28;20227;-73
2022/04/23 09:39:31;;;;;;;21.23;14.17;;;14.10;99.90;;;;;;5028946;28;20398;-73
2022/04/23 09:42:17;;;;;;;21.70;12.53;;;14.00;99.90;;;;;;5028896;28;20921;-73
2022/04/23 09:44:44;;;;;;;15.13;12.17;;;14.20;99.90;;;;;;5010266;28;20468;-73
2022/04/23 09:47:11;;;;;;;16.77;12.37;;;14.10;99.90;;;;;;5028756;28;21019;-73
2022/04/23 09:49:38;;;;;;;17.03;11.87;;;14.10;99.90;;;;;;5029001;28;20430;-73
2022/04/23 09:52:11;;;;;;;16.23;12.33;;;14.20;99.90;;;;;;5011006;28;20540;-73
2022/04/23 09:54:38;;;;;;;18.60;12.57;;;14.40;99.90;;;;;;5028660;28;20470;-73
2022/04/23 09:57:04;;;;;;;15.70;12.13;;;14.40;99.90;;;;;;5028663;28;20441;-72
2022/04/23 09:59:30;;;;;;;15.57;12.67;;;14.30;99.90;;;;;;5011542;28;20445;-73
2022/04/23 10:01:58;;;;;;;15.47;12.80;;;14.60;99.90;;;;;;5029222;28;20332;-73
2022/04/23 10:04:27;;;;;;;17.73;12.93;;;14.80;99.90;;;;;;5029124;28;20466;-73
2022/04/23 10:06:54;;;;;;;16.30;12.67;;;14.20;99.90;;;;;;5028835;28;20452;-73
2022/04/23 10:09:25;;;;;;;15.87;12.30;;;14.30;99.90;;;;;;5028806;28;20422;-73
2022/04/23 10:12:01;;;;;;;18.77;11.90;;;14.50;99.90;;;;;;5029073;28;20422;-73
2022/04/23 10:14:29;;;;;;;13.90;11.60;;;14.70;99.90;;;;;;5029234;28;20454;-73
2022/04/23 10:16:55;;;;;;;17.43;13.53;;;14.70;99.90;;;;;;5011711;28;20840;-74
2022/04/23 10:19:23;;;;;;;15.80;13.20;;;14.70;99.90;;;;;;5011326;28;20416;-74
2022/04/23 10:21:53;;;;;;;14.83;12.50;;;14.40;99.90;;;;;;5029005;28;20424;-73
2022/04/23 10:24:31;;;;;;;16.60;12.27;;;14.20;99.90;;;;;;5028621;28;20439;-74
2022/04/23 10:27:07;;;;;;;23.33;12.90;;;14.20;99.90;;;;;;5028557;28;20442;-73
2022/04/23 10:29:33;;;;;;;19.53;14.93;;;14.20;99.90;;;;;;5028883;28;20572;-73
2022/04/23 10:32:15;;;;;;;15.70;12.73;;;14.30;99.90;;;;;;5010647;28;20427;-73
2022/04/23 10:34:42;;;;;;;16.50;13.07;;;14.20;99.90;;;;;;5028538;28;21360;-74
2022/04/23 10:37:24;;;;;;;15.13;12.80;;;14.30;99.90;;;;;;5028657;28;20798;-73
2022/04/23 10:39:53;;;;;;;14.40;12.70;;;14.30;99.90;;;;;;5028712;28;20768;-74
2022/04/23 10:42:23;;;;;;;16.13;12.87;;;14.30;99.90;;;;;;5028694;28;20846;-73
2022/04/23 10:44:51;;;;;;;15.07;12.30;;;14.10;99.90;;;;;;5028485;28;20763;-73
2022/04/23 10:47:30;;;;;;;17.93;12.93;;;13.90;99.90;;;;;;5028376;28;20448;-74
2022/04/23 10:52:40;;;;;;;14.67;12.53;;;13.70;99.90;;;;;;5028472;28;20454;-74
2022/04/23 10:55:07;;;;;;;16.03;12.63;;;13.70;99.90;;;;;;5028608;28;20502;-73
2022/04/23 10:57:34;;;;;;;16.40;13.07;;;13.90;99.90;;;;;;5029542;28;20207;-74
2022/04/23 11:00:31;;;;;;;15.50;12.77;;;14.00;99.90;;;;;;5032429;28;20930;-74
2022/04/23 11:03:07;;;;;;;15.07;12.30;;;14.00;99.90;;;;;;5012014;28;20437;-74
2022/04/23 11:13:57;;;;;;;14.73;12.30;;;13.90;99.90;;;;;;5033852;28;20920;-74
2022/04/23 11:16:26;;;;;;;15.27;12.50;;;13.40;99.90;;;;;;5033806;28;21071;-73
2022/04/23 11:18:52;;;;;;;14.97;12.40;;;13.50;99.90;;;;;;5014455;28;21000;-73
2022/04/23 11:21:23;;;;;;;15.83;12.40;;;13.60;99.90;;;;;;5032548;28;20512;-74
2022/04/23 11:23:50;;;;;;;16.20;13.10;;;13.90;99.90;;;;;;5014871;28;20415;-74
2022/04/23 11:26:18;;;;;;;16.00;12.60;;;14.00;99.90;;;;;;4997691;28;20458;-73
2022/04/23 11:28:45;;;;;;;13.83;12.07;;;14.00;99.90;;;;;;5031612;28;20446;-73
2022/04/23 11:31:17;;;;;;;15.93;12.50;;;14.10;99.90;;;;;;5013830;28;20427;-73
2022/04/23 11:33:53;;;;;;;16.20;11.87;;;13.80;99.90;;;;;;5031530;28;20423;-74
2022/04/23 11:36:23;;;;;;;15.97;12.60;;;13.60;99.90;;;;;;5031855;28;20476;-73
2022/04/23 11:38:49;;;;;;;15.03;12.83;;;13.30;99.90;;;;;;5031587;28;20920;-74
2022/04/23 11:41:32;;;;;;;19.03;13.40;;;13.20;99.90;;;;;;5031283;28;20441;-74
2022/04/23 11:43:58;;;;;;;15.33;12.70;;;13.30;99.90;;;;;;5031201;28;20187;-73
2022/04/23 11:46:24;;;;;;;14.60;12.67;;;13.50;99.90;;;;;;5031359;28;20883;-74
2022/04/23 11:48:51;;;;;;;14.20;12.13;;;13.30;99.90;;;;;;5031103;28;20429;-73
2022/04/23 11:51:19;;;;;;;15.47;13.00;;;13.50;99.90;;;;;;5013608;28;20188;-74
2022/04/23 11:53:58;;;;;;;14.00;12.30;;;13.60;99.90;;;;;;5013382;28;20470;-73
2022/04/23 11:56:24;;;;;;;13.90;12.40;;;13.90;99.90;;;;;;5013505;28;20430;-74
2022/04/23 11:58:56;;;;;;;16.80;11.70;;;14.00;99.90;;;;;;5031165;28;20407;-74
2022/04/23 12:01:23;;;;;;;15.47;11.93;;;14.20;99.90;;;;;;5031003;28;20446;-73
2022/04/23 12:03:50;;;;;;;14.00;11.60;;;14.40;99.90;;;;;;5030998;28;20416;-73
2022/04/23 12:06:16;;;;;;;15.37;12.67;;;14.50;99.90;;;;;;5030927;28;20419;-73
2022/04/23 12:08:41;;;;;;;15.70;11.20;;;14.50;99.90;;;;;;5012556;28;20447;-73
2022/04/23 12:11:24;;;;;;;14.23;11.23;;;14.70;99.90;;;;;;4996666;28;20195;-74
2022/04/23 12:13:51;;;;;;;17.93;13.17;;;14.80;99.90;;;;;;5030830;28;20204;-74
2022/04/23 12:16:49;;;;;;;13.80;11.27;;;15.00;99.90;;;;;;5031091;28;20522;-73
2022/04/23 12:19:17;;;;;;;15.27;12.70;;;14.90;99.90;;;;;;4976273;28;20427;-73
2022/04/23 12:21:56;;;;;;;15.37;12.87;;;14.70;99.90;;;;;;5012929;28;20431;-73
2022/04/23 12:24:35;;;;;;;18.03;12.53;;;14.80;99.90;;;;;;5013399;28;20446;-73
2022/04/23 12:27:04;;;;;;;19.00;11.80;;;14.70;99.90;;;;;;5030870;28;20448;-74
2022/04/23 12:40:44;;;;;;;15.57;12.00;;;15.40;99.90;;;;;;5032912;28;20525;-74
2022/04/23 12:43:30;;;;;;;18.70;12.17;;;15.40;99.90;;;;;;5013187;28;20443;-73
2022/04/23 12:46:09;;;;;;;12.60;10.73;;;15.20;99.90;;;;;;5031093;28;20231;-73
2022/04/23 12:49:03;;;;;;;14.73;12.50;;;15.20;99.90;;;;;;5030663;28;20435;-74
2022/04/23 12:51:29;;;;;;;11.63;10.40;;;15.40;99.90;;;;;;5012512;28;20447;-73
2022/04/23 12:53:55;;;;;;;17.60;11.57;;;15.50;99.90;;;;;;5012222;28;20494;-74
2022/04/23 12:56:32;;;;;;;17.13;12.47;;;15.40;99.90;;;;;;5030094;28;20190;-73
2022/04/23 12:58:58;;;;;;;13.77;11.70;;;15.30;99.90;;;;;;5030098;28;20290;-73
2022/04/23 13:01:24;;;;;;;15.63;12.50;;;15.30;99.90;;;;;;5011925;28;20419;-73
2022/04/23 13:03:49;;;;;;;15.13;12.20;;;15.40;99.90;;;;;;5029680;28;20184;-74
2022/04/23 13:08:59;;;;;;;20.20;12.03;;;15.20;99.90;;;;;;5029847;28;20231;-74
2022/04/23 13:11:29;;;;;;;16.57;11.20;;;15.30;99.90;;;;;;5029999;28;20455;-74
2022/04/23 13:14:00;;;;;;;12.70;11.20;;;15.30;99.90;;;;;;5029620;28;20521;-74
2022/04/23 13:16:33;;;;;;;11.73;10.53;;;15.40;99.90;;;;;;5029865;28;20415;-73
2022/04/23 13:19:00;;;;;;;12.80;11.50;;;15.60;99.90;;;;;;5029376;28;20410;-73